Latest Coastal Weather Observations for Parndana

IDS60701

Issued at 10:05 am CST Saturday 2 August 2014 (issued every 10 minutes, with the page automatically refreshed every 10 minutes)

About coastal observations | Map of coastal stations | Coastal observations for SA | Marine services | Other Formats
Station Details ID: 022843 Name: PARNDANA CFS AWS Lat: -35.79 Lon: 137.25 Height: 165.0 m
Data from the previous 72 hours. | See also: Recent months at Parndana
Date/Time
CST
Temp

°C
Wind Pressure Rain
since 9am
mm
Weather Cloud Vis
km
Sea
Height
m
Swell
Dir
 
Speed
knots
Gust
knots
hPa Trend Height
m
Period
s
Dir
02/10:00am 9.8 N 3 3 - - 0.0 - - - - - - -
02/09:30am 10.1 N 3 3 - - 0.0 - - - - - - -
02/09:00am 7.7 CALM 0 0 - - 3.0 - - - - - - -
02/08:30am 6.2 NW 2 3 - - 3.0 - - - - - - -
02/08:00am 4.7 NW 3 3 - - 3.0 - - - - - - -
02/07:30am 3.0 WNW 1 2 - - 3.0 - - - - - - -
02/07:00am 3.5 NW 3 3 - - 3.0 - - - - - - -
02/06:30am 4.8 W 2 3 - - 3.0 - - - - - - -
02/06:00am 3.2 W 3 3 - - 3.0 - - - - - - -
02/05:30am 2.8 W 5 6 - - 3.0 - - - - - - -
02/05:00am 3.3 W 3 4 - - 3.0 - - - - - - -
02/04:30am 3.6 W 4 5 - - 3.0 - - - - - - -
02/04:00am 3.7 WNW 4 5 - - 3.0 - - - - - - -
02/03:30am 3.8 W 4 5 - - 3.0 - - - - - - -
02/03:00am 3.3 WNW 4 5 - - 3.0 - - - - - - -
02/02:30am 3.0 WNW 5 5 - - 3.0 - - - - - - -
02/02:00am 2.9 WNW 4 4 - - 3.0 - - - - - - -
02/01:30am 3.5 WNW 4 5 - - 3.0 - - - - - - -
02/01:00am 4.4 SW 5 6 - - 3.0 - - - - - - -
02/12:30am 3.5 WSW 7 9 - - 3.0 - - - - - - -
02/12:00am 5.6 WNW 3 4 - - 3.0 - - - - - - -
 
Date/Time
CST
Temp

°C
Wind Pressure Rain
since 9am
mm
Weather Cloud Vis
km
Sea
Height
m
Swell
Dir
 
Speed
knots
Gust
knots
hPa Trend Height
m
Period
s
Dir
01/11:30pm 3.2 W 5 7 - - 3.0 - - - - - - -
01/11:00pm 3.9 S 3 7 - - 3.0 - - - - - - -
01/10:30pm 3.5 WNW 6 8 - - 3.0 - - - - - - -
01/10:00pm 5.5 E 2 4 - - 3.0 - - - - - - -
01/09:30pm 6.1 SE 7 9 - - 3.0 - - - - - - -
01/09:00pm 5.6 SSW 5 8 - - 3.0 - - - - - - -
01/08:30pm 5.2 W 5 5 - - 3.0 - - - - - - -
01/08:00pm 5.5 W 4 5 - - 3.0 - - - - - - -
01/07:30pm 5.4 W 5 6 - - 3.0 - - - - - - -
01/07:00pm 6.3 SW 6 7 - - 3.0 - - - - - - -
01/06:30pm 6.4 SW 6 8 - - 3.0 - - - - - - -
01/06:00pm 6.3 SW 6 8 - - 3.0 - - - - - - -
01/05:30pm 7.4 SSW 7 10 - - 3.0 - - - - - - -
01/05:00pm 8.4 SSW 9 12 - - 3.0 - - - - - - -
01/04:30pm 8.8 SSW 9 12 - - 3.0 - - - - - - -
01/04:00pm 10.0 SSW 14 19 - - 3.0 - - - - - - -
01/03:30pm 9.7 SSW 17 24 - - 3.0 - - - - - - -
01/03:00pm 8.8 SSW 12 17 - - 3.0 Rain - - - - - -
01/02:44pm 9.8 SSW 16 31 - - 2.6 - - - - - - -
01/02:30pm 10.6 SSW 15 22 - - 2.6 - - - - - - -
01/02:00pm 11.1 SSW 17 24 - - 2.6 - - - - - - -
01/01:41pm 10.5 SSW 16 26 - - 2.6 - - - - - - -
01/01:30pm 10.7 SSW 17 23 - - 2.6 - - - - - - -
01/01:14pm 10.3 SSW 16 28 - - 2.6 - - - - - - -
01/01:00pm 10.3 SSW 20 27 - - 2.6 - - - - - - -
01/12:30pm 8.6 SW 15 21 - - 2.6 - - - - - - -
01/12:00pm 9.1 SW 16 21 - - 2.6 - - - - - - -
01/11:30am 10.2 SSW 20 28 - - 2.6 - - - - - - -
01/11:09am 9.8 SSW 18 29 - - 2.6 - - - - - - -
01/11:00am 8.8 SSW 17 25 - - 2.6 - - - - - - -
01/10:30am 8.6 SSW 15 22 - - 2.6 - - - - - - -
01/10:00am 5.5 SSW 20 36 - - 1.4 - - - - - - -
01/09:55am 8.9 SSW 16 27 - - 0.6 - - - - - - -
01/09:30am 7.3 SSW 17 25 - - 0.6 - - - - - - -
01/09:00am 5.4 SSW 14 21 - - 9.2 Rain - - - - - -
01/08:30am 7.2 SW 18 27 - - 8.2 - - - - - - -
01/08:02am 7.6 SW 17 33 - - 8.2 - - - - - - -
01/08:00am 7.6 SW 15 22 - - 8.0 - - - - - - -
01/07:30am 6.5 SW 16 26 - - 8.0 - - - - - - -
01/07:00am 5.7 SW 16 26 - - 8.0 - - - - - - -
01/06:55am 5.7 SW 26 37 - - 8.0 - - - - - - -
01/06:52am 5.7 SW 32 37 - - 7.8 - - - - - - -
01/06:50am 7.2 SW 19 39 - - 7.2 - - - - - - -
01/06:30am 7.2 SW 16 24 - - 6.6 - - - - - - -
01/06:00am 5.8 SW 14 19 - - 6.6 Recent precip. - - - - - -
01/05:37am 6.3 SW 15 26 - - 6.2 - - - - - - -
01/05:30am 6.4 WSW 15 23 - - 5.8 - - - - - - -
01/05:01am 7.0 SW 20 36 - - 5.2 - - - - - - -
01/05:00am 7.4 WSW 19 27 - - 5.2 - - - - - - -
01/04:30am 7.0 WSW 18 28 - - 5.0 - - - - - - -
01/04:01am 6.9 WSW 18 29 - - 5.0 - - - - - - -
01/04:00am 6.9 WSW 18 27 - - 5.0 - - - - - - -
01/03:30am 6.8 WSW 20 32 - - 5.0 - - - - - - -
01/03:09am 6.7 WSW 17 29 - - 5.0 - - - - - - -
01/03:00am 6.3 WSW 14 20 - - 5.0 Recent precip. - - - - - -
01/02:30am 5.8 W 14 20 - - 5.0 - - - - - - -
01/02:12am 5.8 W 21 33 - - 5.0 - - - - - - -
01/02:00am 5.7 W 14 21 - - 4.8 - - - - - - -
01/01:30am 6.1 W 16 22 - - 4.6 - - - - - - -
01/01:07am 6.5 W 17 28 - - 4.4 - - - - - - -
01/01:00am 6.1 W 14 21 - - 4.4 - - - - - - -
01/12:30am 6.6 W 19 34 - - 4.4 - - - - - - -
01/12:27am 6.5 W 16 29 - - 4.4 - - - - - - -
01/12:00am 5.8 WSW 13 18 - - 4.4 Recent precip. - - - - - -
 
Date/Time
CST
Temp

°C
Wind Pressure Rain
since 9am
mm
Weather Cloud Vis
km
Sea
Height
m
Swell
Dir
 
Speed
knots
Gust
knots
hPa Trend Height
m
Period
s
Dir
31/11:30pm 6.1 W 13 18 - - 4.2 - - - - - - -
31/11:00pm 5.3 W 11 15 - - 4.2 - - - - - - -
31/10:30pm 6.1 W 13 20 - - 4.0 - - - - - - -
31/10:00pm 6.0 WSW 14 19 - - 4.0 - - - - - - -
31/09:37pm 6.8 W 15 28 - - 4.0 - - - - - - -
31/09:30pm 6.9 W 13 17 - - 4.0 - - - - - - -
31/09:00pm 6.5 W 15 20 - - 4.0 - - - - - - -
31/08:30pm 6.8 W 18 26 - - 4.0 - - - - - - -
31/08:26pm 6.9 W 15 25 - - 4.0 - - - - - - -
31/08:00pm 6.0 WNW 9 13 - - 4.0 - - - - - - -
31/07:30pm 6.3 W 9 11 - - 4.0 - - - - - - -
31/07:00pm 6.3 W 12 17 - - 4.0 - - - - - - -
31/06:30pm 6.5 W 12 15 - - 4.0 - - - - - - -
31/06:00pm 6.9 W 11 14 - - 3.8 - - - - - - -
31/05:30pm 7.2 W 14 17 - - 3.8 - - - - - - -
31/05:06pm 7.7 WSW 15 26 - - 3.8 - - - - - - -
31/05:00pm 7.2 W 14 23 - - 3.8 - - - - - - -
31/04:30pm 7.9 W 13 18 - - 3.6 - - - - - - -
31/04:06pm 7.7 W 17 31 - - 3.6 - - - - - - -
31/04:00pm 7.6 W 17 24 - - 3.6 - - - - - - -
31/03:30pm 6.6 WSW 21 32 - - 3.6 - - - - - - -
31/03:00pm 7.8 WSW 21 32 - - 3.2 Recent precip. - - - - - -
31/02:47pm 8.0 WSW 16 28 - - 3.2 - - - - - - -
31/02:30pm 8.4 WSW 15 24 - - 3.0 - - - - - - -
31/02:15pm 8.5 WSW 18 33 - - 2.8 - - - - - - -
31/02:00pm 8.9 W 16 22 - - 2.4 - - - - - - -
31/01:30pm 8.5 W 18 25 - - 2.2 - - - - - - -
31/01:12pm 8.9 WSW 18 30 - - 2.0 - - - - - - -
31/01:00pm 8.9 W 18 24 - - 1.8 - - - - - - -
31/12:40pm 8.4 WSW 22 32 - - 1.6 - - - - - - -
31/12:30pm 9.2 WSW 23 31 - - 1.4 - - - - - - -
31/12:28pm 9.9 WNW 19 42 - - 1.4 - - - - - - -
31/12:00pm 9.9 W 20 31 - - 1.2 Recent precip. - - - - - -
31/11:30am 8.7 W 18 29 - - 1.2 - - - - - - -
31/11:00am 9.2 WSW 18 29 - - 0.8 - - - - - - -
31/10:32am 9.6 WSW 20 30 - - 0.4 - - - - - - -
31/10:30am 9.6 WSW 21 30 - - 0.4 - - - - - - -
31/10:07am 9.4 WSW 19 29 - - 0.4 - - - - - - -
31/10:00am 9.2 WSW 20 28 - - 0.4 - - - - - - -
31/09:30am 9.7 WSW 21 33 - - 0.4 - - - - - - -
31/09:06am 10.9 WSW 21 32 - - 0.0 - - - - - - -
31/09:00am 10.8 W 24 32 - - 3.0 Rain - - - - - -
31/08:57am 12.5 W 25 30 - - 2.0 - - - - - - -
31/08:30am 13.1 WNW 26 39 - - 0.2 - - - - - - -
31/08:05am 13.0 NW 27 37 - - 0.2 - - - - - - -
31/08:00am 13.2 NW 29 37 - - 0.2 - - - - - - -
31/07:30am 13.9 NW 27 42 - - 0.0 - - - - - - -
31/07:00am 13.8 NW 27 41 - - 0.0 - - - - - - -
31/06:30am 13.6 NW 25 37 - - 0.0 - - - - - - -
31/06:00am 13.7 NW 27 43 - - 0.0 - - - - - - -
31/05:30am 13.5 NW 24 35 - - 0.0 - - - - - - -
31/05:02am 13.5 WNW 23 34 - - 0.0 - - - - - - -
31/05:00am 13.5 WNW 25 34 - - 0.0 - - - - - - -
31/04:30am 13.6 WNW 27 41 - - 0.0 - - - - - - -
31/04:00am 13.5 WNW 27 40 - - 0.0 - - - - - - -
31/03:30am 13.8 NW 27 37 - - 0.0 - - - - - - -
31/03:00am 13.6 NW 20 33 - - 0.0 - - - - - - -
31/02:30am 13.5 NW 22 34 - - 0.0 - - - - - - -
31/02:22am 13.6 NW 22 34 - - 0.0 - - - - - - -
31/02:00am 13.6 NW 22 32 - - 0.0 - - - - - - -
31/01:47am 13.6 NW 22 35 - - 0.0 - - - - - - -
31/01:30am 13.5 NW 20 28 - - 0.0 - - - - - - -
31/01:06am 13.6 NW 22 33 - - 0.0 - - - - - - -
31/01:00am 13.6 NW 22 30 - - 0.0 - - - - - - -
31/12:44am 13.6 NW 20 32 - - 0.0 - - - - - - -
31/12:30am 13.6 NW 20 27 - - 0.0 - - - - - - -
31/12:03am 13.6 NW 22 33 - - 0.0 - - - - - - -
31/12:00am 13.7 NW 23 33 - - 0.0 - - - - - - -
 
Date/Time
CST
Temp

°C
Wind Pressure Rain
since 9am
mm
Weather Cloud Vis
km
Sea
Height
m
Swell
Dir
 
Speed
knots
Gust
knots
hPa Trend Height
m
Period
s
Dir
30/11:50pm 13.7 NW 20 38 - - 0.0 - - - - - - -
30/11:30pm 13.7 NW 22 30 - - 0.0 - - - - - - -
30/11:00pm 13.9 NW 22 33 - - 0.0 - - - - - - -
30/10:41pm 13.6 NW 19 29 - - 0.0 - - - - - - -
30/10:30pm 13.7 NW 20 27 - - 0.0 - - - - - - -
30/10:00pm 13.4 NW 19 31 - - 0.0 - - - - - - -
30/09:35pm 13.7 NW 20 30 - - 0.0 - - - - - - -
30/09:30pm 13.8 NW 20 26 - - 0.0 - - - - - - -
30/09:00pm 13.9 NW 18 30 - - 0.0 - - - - - - -
30/08:55pm 13.9 NW 17 27 - - 0.0 - - - - - - -
30/08:30pm 13.8 NW 18 27 - - 0.0 - - - - - - -
30/08:09pm 14.0 NW 19 30 - - 0.0 - - - - - - -
30/08:00pm 14.0 NW 18 26 - - 0.0 - - - - - - -
30/07:30pm 14.1 NW 18 26 - - 0.0 - - - - - - -
30/07:14pm 14.0 NW 17 28 - - 0.0 - - - - - - -
30/07:00pm 14.0 NW 16 22 - - 0.0 - - - - - - -
30/06:30pm 14.1 NW 14 22 - - 0.0 - - - - - - -
30/06:00pm 14.1 NW 14 21 - - 0.0 - - - - - - -
30/05:30pm 14.0 NW 17 23 - - 0.0 - - - - - - -
30/05:00pm 14.3 NW 21 30 - - 0.0 - - - - - - -
30/04:47pm 14.4 NW 18 28 - - 0.0 - - - - - - -
30/04:30pm 14.4 NW 21 28 - - 0.0 - - - - - - -
30/04:00pm 14.8 NW 20 31 - - 0.0 - - - - - - -
30/03:30pm 14.7 NW 23 33 - - 0.0 - - - - - - -
30/03:00pm 14.5 NW 20 30 - - 0.0 - - - - - - -
30/02:30pm 14.8 NW 20 31 - - 0.0 - - - - - - -
30/02:05pm 14.8 NW 21 32 - - 0.0 - - - - - - -
30/02:00pm 14.8 NW 22 29 - - 0.0 - - - - - - -
30/01:40pm 14.9 NW 19 29 - - 0.0 - - - - - - -
30/01:30pm 14.7 NW 19 26 - - 0.0 - - - - - - -
30/01:14pm 15.0 NW 20 31 - - 0.0 - - - - - - -
30/01:00pm 15.3 NW 22 31 - - 0.0 - - - - - - -
30/12:35pm 15.3 WNW 18 28 - - 0.0 - - - - - - -
30/12:30pm 15.2 WNW 21 28 - - 0.0 - - - - - - -
30/12:00pm 15.3 WNW 17 25 - - 0.0 - - - - - - -
30/11:30am 15.1 WNW 21 33 - - 0.0 - - - - - - -
30/11:04am 15.1 WNW 24 35 - - 0.0 - - - - - - -
30/11:00am 14.8 WNW 26 35 - - 0.0 - - - - - - -
30/10:53am 15.2 WNW 23 34 - - 0.0 - - - - - - -
30/10:30am 15.4 WNW 22 29 - - 0.0 - - - - - - -
30/10:17am 14.9 WNW 23 34 - - 0.0 - - - - - - -

Other Formats:

Comma delimited format used in spreadsheet applications
http://www.bom.gov.au/fwo/IDS60701/IDS60701.94807.axf

JavaScript Object Notation format (JSON) in row-major order
http://www.bom.gov.au/fwo/IDS60701/IDS60701.94807.json